createdAt,value
2018-12-18T00:02:22.987Z,2.26
2018-12-18T00:04:51.498Z,2.23
2018-12-18T00:07:20.053Z,2.29
2018-12-18T00:09:48.694Z,2.30
2018-12-18T00:12:17.227Z,2.25
2018-12-18T00:14:45.755Z,2.25
2018-12-18T00:17:15.213Z,2.22
2018-12-18T00:19:43.740Z,2.11
2018-12-18T00:22:12.275Z,2.06
2018-12-18T00:24:40.821Z,2.01
2018-12-18T00:27:09.355Z,1.98
2018-12-18T00:29:38.914Z,1.84
2018-12-18T00:32:07.452Z,1.75
2018-12-18T00:34:35.975Z,1.65
2018-12-18T00:37:04.522Z,1.56
2018-12-18T00:39:33.050Z,1.64
2018-12-18T00:42:01.554Z,1.58
2018-12-18T00:44:31.058Z,1.54
2018-12-18T00:46:59.574Z,1.50
2018-12-18T00:49:28.109Z,1.57
2018-12-18T00:51:56.638Z,1.56
2018-12-18T00:54:27.149Z,1.58
2018-12-18T00:56:55.682Z,1.53
2018-12-18T00:59:24.217Z,1.44
2018-12-18T01:01:59.586Z,1.35
2018-12-18T01:04:28.130Z,1.34
2018-12-18T01:06:56.670Z,1.24
2018-12-18T01:09:27.164Z,1.15
2018-12-18T01:11:55.677Z,1.07
2018-12-18T01:14:38.416Z,1.09
2018-12-18T01:17:07.002Z,1.18
2018-12-18T01:19:35.538Z,1.17
2018-12-18T01:22:04.043Z,1.12
2018-12-18T01:24:32.562Z,0.94
2018-12-18T01:27:01.090Z,0.91
2018-12-18T01:29:29.621Z,0.86
2018-12-18T01:31:58.158Z,0.79
2018-12-18T01:34:26.692Z,0.78
2018-12-18T01:36:55.214Z,0.81
2018-12-18T01:39:23.729Z,0.80
2018-12-18T01:41:52.256Z,0.83
2018-12-18T01:44:20.862Z,0.88
2018-12-18T01:46:49.399Z,0.76
2018-12-18T01:49:18.809Z,0.81
2018-12-18T01:51:47.367Z,0.79
2018-12-18T01:54:15.886Z,0.70
2018-12-18T01:56:44.388Z,0.67
2018-12-18T01:59:12.895Z,0.72
2018-12-18T02:01:41.405Z,0.80
2018-12-18T02:04:09.929Z,0.86
2018-12-18T02:06:38.431Z,0.89
2018-12-18T02:09:06.954Z,0.86
2018-12-18T02:11:35.482Z,0.84
2018-12-18T02:14:04.023Z,0.79
2018-12-18T02:16:32.547Z,0.80
2018-12-18T02:19:01.087Z,0.84
2018-12-18T02:21:29.606Z,0.81
2018-12-18T02:23:58.133Z,0.89
2018-12-18T02:26:27.598Z,0.91
2018-12-18T02:28:56.122Z,0.92
2018-12-18T02:31:24.637Z,0.95
2018-12-18T02:33:53.215Z,0.95
2018-12-18T02:36:21.724Z,1.03
2018-12-18T02:38:50.253Z,1.05
2018-12-18T02:41:18.909Z,1.11
2018-12-18T02:43:47.466Z,1.01
2018-12-18T02:46:15.978Z,1.16
2018-12-18T02:48:44.485Z,1.28
2018-12-18T02:51:13.034Z,1.31
2018-12-18T02:53:42.498Z,1.27
2018-12-18T02:56:12.011Z,1.36
2018-12-18T02:58:40.523Z,1.40
2018-12-18T03:01:09.075Z,1.43
2018-12-18T03:03:38.584Z,1.42
2018-12-18T03:06:07.154Z,1.44
2018-12-18T03:08:36.685Z,1.36
2018-12-18T03:14:24.252Z,1.51
2018-12-18T03:16:53.929Z,1.56
2018-12-18T03:19:22.986Z,1.64
2018-12-18T03:21:52.023Z,1.57
2018-12-18T03:24:21.066Z,1.47
2018-12-18T03:26:50.128Z,1.41
2018-12-18T03:29:19.189Z,1.32
2018-12-18T03:31:48.273Z,1.41
2018-12-18T03:34:17.437Z,1.45
2018-12-18T03:36:46.468Z,1.53
2018-12-18T03:39:15.553Z,1.38
2018-12-18T03:41:44.595Z,1.48
2018-12-18T03:44:13.651Z,1.42
2018-12-18T03:46:42.717Z,1.36
2018-12-18T03:49:11.750Z,1.34
2018-12-18T03:51:40.812Z,1.40
2018-12-18T03:54:09.840Z,1.46
2018-12-18T03:56:38.884Z,1.49
2018-12-18T03:59:07.937Z,1.49
2018-12-18T04:01:36.987Z,1.49
2018-12-18T04:04:06.067Z,1.51
2018-12-18T04:06:35.104Z,1.51
2018-12-18T04:09:04.162Z,1.55
2018-12-18T04:11:33.206Z,1.54
2018-12-18T04:14:02.248Z,1.52
2018-12-18T04:16:31.288Z,1.55
2018-12-18T04:19:00.405Z,1.57
2018-12-18T04:21:29.439Z,1.59
2018-12-18T04:23:58.491Z,1.62
2018-12-18T04:26:27.545Z,1.65
2018-12-18T04:28:56.571Z,1.67
2018-12-18T04:31:25.621Z,1.72
2018-12-18T04:33:54.667Z,1.70
2018-12-18T04:36:23.733Z,1.64
2018-12-18T04:38:52.834Z,1.56
2018-12-18T04:41:22.937Z,1.56
2018-12-18T04:43:51.971Z,1.62
2018-12-18T04:46:21.076Z,1.65
2018-12-18T04:48:50.112Z,1.64
2018-12-18T04:51:20.015Z,1.62
2018-12-18T04:53:49.047Z,1.56
2018-12-18T04:56:18.094Z,1.46
2018-12-18T04:58:47.141Z,1.26
2018-12-18T05:01:18.138Z,1.21
2018-12-18T05:03:47.197Z,1.16
2018-12-18T05:06:16.255Z,1.13
2018-12-18T05:08:45.314Z,0.90
2018-12-18T05:11:14.341Z,0.79
2018-12-18T05:13:43.371Z,0.82
2018-12-18T05:16:12.438Z,0.71
2018-12-18T05:18:41.469Z,0.52
2018-12-18T05:21:10.518Z,0.41
2018-12-18T05:23:39.550Z,0.41
2018-12-18T05:26:08.595Z,0.54
2018-12-18T05:28:37.636Z,0.48
2018-12-18T05:31:13.022Z,0.51
2018-12-18T05:33:42.060Z,0.45
2018-12-18T05:36:11.114Z,0.46
2018-12-18T05:38:40.165Z,0.53
2018-12-18T05:41:09.258Z,0.61
2018-12-18T05:43:38.270Z,0.38
2018-12-18T05:46:07.327Z,0.21
2018-12-18T05:48:36.401Z,-0.01
2018-12-18T05:51:05.475Z,-0.05
2018-12-18T05:56:11.945Z,-0.20
2018-12-18T05:58:41.029Z,-0.29
2018-12-18T06:01:11.075Z,-0.46
2018-12-18T06:03:40.139Z,-0.61
2018-12-18T06:06:10.216Z,-0.64
2018-12-18T06:08:39.293Z,-0.52
2018-12-18T06:11:08.376Z,-0.54
2018-12-18T06:13:37.457Z,-0.62
2018-12-18T06:16:06.524Z,-0.79
2018-12-18T06:18:35.610Z,-0.76
2018-12-18T06:21:05.608Z,-0.71
2018-12-18T06:23:35.023Z,-0.52
2018-12-18T06:26:04.549Z,-0.58
2018-12-18T06:28:33.833Z,-0.47
2018-12-18T06:31:02.886Z,-0.49
2018-12-18T06:33:31.943Z,-0.60
2018-12-18T06:36:01.032Z,-0.57
2018-12-18T06:38:30.163Z,-0.51
2018-12-18T06:40:59.211Z,-0.58
2018-12-18T06:46:04.083Z,-0.61
2018-12-18T06:48:33.199Z,-0.58
2018-12-18T06:51:02.251Z,-0.58
2018-12-18T06:53:31.361Z,-0.49
2018-12-18T06:56:00.450Z,-0.51
2018-12-18T06:58:29.534Z,-0.55
2018-12-18T07:00:58.599Z,-0.52
2018-12-18T07:03:27.655Z,-0.42
2018-12-18T07:05:56.717Z,-0.34
2018-12-18T07:11:04.585Z,-0.26
2018-12-18T07:13:33.654Z,-0.26
2018-12-18T07:16:02.830Z,-0.43
2018-12-18T07:18:32.859Z,-0.42
2018-12-18T07:21:01.887Z,-0.35
2018-12-18T07:23:30.940Z,-0.33
2018-12-18T07:26:11.249Z,-0.24
2018-12-18T07:28:40.290Z,-0.39
2018-12-18T07:31:09.394Z,-0.41
2018-12-18T07:33:38.454Z,-0.46
2018-12-18T07:38:58.497Z,-0.71
2018-12-18T07:41:28.496Z,-0.68
2018-12-18T07:44:10.496Z,-0.62
2018-12-18T07:46:43.289Z,-0.50
2018-12-18T07:51:02.479Z,-0.33
2018-12-18T07:53:31.540Z,-0.27
2018-12-18T07:56:00.600Z,-0.27
2018-12-18T07:58:29.666Z,-0.22
2018-12-18T08:00:58.745Z,-0.20
2018-12-18T08:03:27.807Z,-0.17
2018-12-18T08:05:57.004Z,-0.10
2018-12-18T08:08:26.068Z,-0.01
2018-12-18T08:10:55.138Z,0.05
2018-12-18T08:13:24.179Z,0.08
2018-12-18T08:15:53.230Z,0.18
2018-12-18T08:18:23.179Z,0.29
2018-12-18T08:20:52.207Z,0.38
2018-12-18T08:23:21.251Z,0.47
2018-12-18T08:25:50.317Z,0.53
2018-12-18T08:28:21.326Z,0.61
2018-12-18T08:30:50.375Z,0.70
2018-12-18T08:33:19.427Z,0.78
2018-12-18T08:35:48.479Z,0.88
2018-12-18T08:38:17.555Z,0.97
2018-12-18T08:40:46.763Z,1.12
2018-12-18T08:43:15.799Z,1.30
2018-12-18T08:45:44.827Z,2.05
2018-12-18T08:48:14.863Z,3.13
2018-12-18T08:50:43.899Z,4.22
2018-12-18T08:53:12.935Z,5.69
2018-12-18T08:55:48.814Z,7.75
2018-12-18T08:58:17.855Z,9.06
2018-12-18T09:00:46.904Z,11.24
2018-12-18T09:03:15.961Z,11.80
2018-12-18T09:05:45.020Z,12.09
2018-12-18T09:08:14.072Z,10.82
2018-12-18T09:10:43.122Z,12.58
2018-12-18T09:15:53.587Z,14.92
2018-12-18T09:20:58.416Z,17.53
2018-12-18T09:23:27.521Z,16.46
2018-12-18T09:25:56.567Z,15.73
2018-12-18T09:28:25.632Z,14.63
2018-12-18T09:33:30.542Z,18.86
2018-12-18T09:35:59.595Z,17.75
2018-12-18T09:38:34.126Z,17.58
2018-12-18T09:41:09.835Z,16.55
2018-12-18T09:46:37.635Z,18.84
2018-12-18T09:49:06.798Z,20.86
2018-12-18T09:51:35.831Z,20.49
2018-12-18T09:54:04.976Z,17.81
2018-12-18T09:56:33.951Z,17.08
2018-12-18T09:59:03.008Z,16.80
2018-12-18T10:04:19.946Z,17.91
2018-12-18T10:06:48.982Z,20.72
2018-12-18T10:09:18.117Z,21.47
2018-12-18T10:11:47.224Z,19.95
2018-12-18T10:14:16.295Z,18.89
2018-12-18T10:19:21.164Z,20.65
2018-12-18T10:21:50.372Z,17.74
2018-12-18T10:24:19.408Z,19.20
2018-12-18T10:26:48.499Z,15.10
2018-12-18T10:31:53.386Z,18.10
2018-12-18T10:34:22.439Z,19.73
2018-12-18T10:39:30.391Z,22.19
2018-12-18T10:41:59.484Z,21.59
2018-12-18T10:44:28.555Z,22.71
2018-12-18T10:46:57.610Z,23.51
2018-12-18T10:52:02.448Z,27.23
2018-12-18T10:54:31.495Z,16.84
2018-12-18T10:59:36.390Z,15.90
2018-12-18T11:02:05.463Z,18.91
2018-12-18T11:04:34.511Z,15.72
2018-12-18T11:09:43.457Z,17.03
2018-12-18T11:17:25.689Z,17.63
2018-12-18T11:19:54.752Z,15.14
2018-12-18T11:22:23.803Z,15.60
2018-12-18T11:27:28.635Z,15.82
2018-12-18T11:29:57.677Z,14.22
2018-12-18T11:32:33.004Z,13.70
2018-12-18T11:34:55.801Z,14.84
2018-12-18T11:40:00.673Z,17.51
2018-12-18T11:42:29.746Z,16.05
2018-12-18T11:44:58.923Z,14.75
2018-12-18T11:47:27.987Z,13.96
2018-12-18T11:49:57.034Z,14.75
2018-12-18T11:52:26.130Z,12.78
2018-12-18T11:54:56.872Z,11.77
2018-12-18T11:57:28.734Z,12.34
2018-12-18T11:59:57.942Z,11.32
2018-12-18T12:05:05.744Z,10.35
2018-12-18T12:07:34.764Z,10.74
2018-12-18T12:12:39.537Z,10.55
2018-12-18T12:15:08.581Z,9.94
2018-12-18T12:17:37.615Z,8.52
2018-12-18T12:20:06.670Z,8.39
2018-12-18T12:22:35.754Z,8.62
2018-12-18T12:25:04.815Z,10.44
2018-12-18T12:27:33.907Z,10.76
2018-12-18T12:30:02.966Z,11.22
2018-12-18T12:32:32.002Z,9.47
2018-12-18T12:37:36.778Z,8.24
2018-12-18T12:40:05.857Z,8.73
2018-12-18T12:42:34.881Z,10.24
2018-12-18T12:45:07.418Z,9.04
2018-12-18T12:47:38.378Z,9.24
2018-12-18T12:50:07.422Z,9.29
2018-12-18T12:52:37.404Z,9.68
2018-12-18T12:55:06.470Z,11.17
2018-12-18T12:57:35.561Z,10.39
2018-12-18T13:00:04.833Z,9.50
2018-12-18T13:02:33.867Z,10.29
2018-12-18T13:05:02.925Z,9.55
2018-12-18T13:07:31.964Z,8.81
2018-12-18T13:10:01.041Z,8.42
2018-12-18T13:15:05.846Z,9.55
2018-12-18T13:17:34.907Z,9.32
2018-12-18T13:20:03.958Z,9.64
2018-12-18T13:22:32.977Z,10.91
2018-12-18T13:25:02.051Z,10.49
2018-12-18T13:27:31.141Z,9.92
2018-12-18T13:32:35.905Z,11.65
2018-12-18T13:35:04.982Z,9.80
2018-12-18T13:37:34.023Z,9.27
2018-12-18T13:40:03.070Z,8.89
2018-12-18T13:42:32.110Z,7.57
2018-12-18T13:45:01.324Z,7.71
2018-12-18T13:52:42.136Z,6.75
2018-12-18T13:55:11.179Z,6.33
2018-12-18T13:57:40.236Z,6.37
2018-12-18T14:02:45.054Z,6.45
2018-12-18T14:05:14.092Z,6.33
2018-12-18T14:07:43.136Z,6.18
2018-12-18T14:10:12.191Z,5.90
2018-12-18T14:15:17.982Z,5.18
2018-12-18T14:17:47.039Z,4.96
2018-12-18T14:20:16.085Z,4.89
2018-12-18T14:22:45.126Z,4.81
2018-12-18T14:25:14.190Z,4.68
2018-12-18T14:27:43.256Z,4.50
2018-12-18T14:32:48.998Z,4.38
2018-12-18T14:35:18.066Z,4.42
2018-12-18T14:37:47.127Z,4.25
2018-12-18T14:40:16.163Z,4.15
2018-12-18T14:42:45.239Z,3.99
2018-12-18T14:45:14.299Z,3.90
2018-12-18T14:47:43.358Z,3.77
2018-12-18T14:50:12.398Z,3.62
2018-12-18T14:52:41.445Z,3.57
2018-12-18T14:55:14.362Z,3.47
2018-12-18T14:57:57.234Z,3.36
2018-12-18T15:00:26.252Z,3.39
2018-12-18T15:02:55.284Z,3.37
2018-12-18T15:08:00.047Z,2.99
2018-12-18T15:10:29.102Z,2.81
2018-12-18T15:12:58.138Z,2.64
2018-12-18T15:15:27.239Z,2.67
2018-12-18T15:17:56.291Z,2.76
2018-12-18T15:20:26.323Z,2.68
2018-12-18T15:22:55.367Z,2.54
2018-12-18T15:25:24.432Z,2.50
2018-12-18T15:27:53.507Z,2.31
2018-12-18T15:30:25.907Z,2.30
2018-12-18T15:32:51.678Z,2.13
2018-12-18T15:35:21.652Z,2.21
2018-12-18T15:37:50.677Z,2.21
2018-12-18T15:43:00.320Z,2.01
2018-12-18T15:45:29.341Z,1.94
2018-12-18T15:47:59.142Z,1.88
2018-12-18T15:50:27.418Z,1.68
2018-12-18T15:55:32.507Z,1.48
2018-12-18T15:58:03.566Z,1.55
2018-12-18T16:03:11.387Z,1.78
2018-12-18T16:05:42.050Z,1.73
2018-12-18T16:08:11.347Z,1.73
2018-12-18T16:10:40.389Z,1.76
2018-12-18T16:13:09.475Z,1.80
2018-12-18T16:15:40.494Z,1.55
2018-12-18T16:18:10.495Z,1.47
2018-12-18T16:20:39.539Z,1.33
2018-12-18T16:23:08.575Z,1.36
2018-12-18T16:25:37.611Z,1.44
2018-12-18T16:28:07.602Z,1.49
2018-12-18T16:33:13.846Z,1.31
2018-12-18T16:35:46.099Z,1.35
2018-12-18T16:38:11.971Z,1.30
2018-12-18T16:40:41.056Z,1.23
2018-12-18T16:43:10.094Z,1.12
2018-12-18T16:45:39.198Z,1.08
2018-12-18T16:48:10.166Z,1.01
2018-12-18T16:50:39.229Z,0.89
2018-12-18T16:53:08.267Z,0.80
2018-12-18T16:55:37.321Z,0.74
2018-12-18T16:58:07.372Z,0.72
2018-12-18T17:00:36.429Z,0.77
2018-12-18T17:03:06.367Z,0.94
2018-12-18T17:08:11.513Z,0.92
2018-12-18T17:10:40.669Z,0.97
2018-12-18T17:13:09.737Z,1.04
2018-12-18T17:15:38.807Z,1.12
2018-12-18T17:18:14.317Z,1.08
2018-12-18T17:20:43.368Z,1.00
2018-12-18T17:23:12.439Z,0.99
2018-12-18T17:25:41.500Z,0.99
2018-12-18T17:28:11.447Z,0.96
2018-12-18T17:30:40.544Z,0.80
2018-12-18T17:33:09.600Z,0.69
2018-12-18T17:35:38.637Z,0.71
2018-12-18T17:38:07.680Z,0.88
2018-12-18T17:43:12.472Z,0.90
2018-12-18T17:45:41.631Z,0.91
2018-12-18T17:48:11.674Z,0.83
2018-12-18T17:50:40.748Z,0.80
2018-12-18T17:53:09.766Z,0.74
2018-12-18T17:55:38.835Z,0.64
2018-12-18T17:58:07.975Z,0.64
2018-12-18T18:00:37.096Z,0.75
2018-12-18T18:03:07.470Z,0.71
2018-12-18T18:05:37.663Z,0.61
2018-12-18T18:08:08.213Z,0.59
2018-12-18T18:15:51.166Z,0.37
2018-12-18T18:18:20.223Z,0.40
2018-12-18T18:20:49.392Z,0.17
2018-12-18T18:23:18.480Z,0.01
2018-12-18T18:25:47.557Z,-0.06
2018-12-18T18:28:17.717Z,-0.09
2018-12-18T18:33:25.715Z,-0.21
2018-12-18T18:35:54.787Z,-0.18
2018-12-18T18:38:24.518Z,0.26
2018-12-18T18:40:53.581Z,0.52
2018-12-18T18:43:22.640Z,0.55
2018-12-18T18:45:51.713Z,0.56
2018-12-18T18:48:20.749Z,0.66
2018-12-18T18:50:49.811Z,0.68
2018-12-18T18:53:18.858Z,0.58
2018-12-18T18:55:48.900Z,0.57
2018-12-18T18:58:17.950Z,0.57
2018-12-18T19:00:47.020Z,0.67
2018-12-18T19:03:16.110Z,0.65
2018-12-18T19:05:45.159Z,0.71
2018-12-18T19:08:15.212Z,0.66
2018-12-18T19:10:44.263Z,0.70
2018-12-18T19:13:21.026Z,0.66
2018-12-18T19:15:50.056Z,0.55
2018-12-18T19:18:19.127Z,0.49
2018-12-18T19:20:48.170Z,0.51
2018-12-18T19:23:18.231Z,0.54
2018-12-18T19:25:47.340Z,0.55
2018-12-18T19:28:17.330Z,0.54
2018-12-18T19:30:46.383Z,0.54
2018-12-18T19:33:15.437Z,0.51
2018-12-18T19:35:45.436Z,0.52
2018-12-18T19:38:14.498Z,0.55
2018-12-18T19:40:43.551Z,0.45
2018-12-18T19:45:48.403Z,0.49
2018-12-18T19:48:17.462Z,0.45
2018-12-18T19:50:46.535Z,0.38
2018-12-18T19:53:15.623Z,0.23
2018-12-18T19:55:45.651Z,0.15
2018-12-18T19:58:14.660Z,0.01
2018-12-18T20:00:44.735Z,0.03
2018-12-18T20:03:13.807Z,-0.08
2018-12-18T20:05:42.873Z,-0.11
2018-12-18T20:08:12.847Z,-0.11
2018-12-18T20:10:41.919Z,0.05
2018-12-18T20:13:11.074Z,0.12
2018-12-18T20:15:40.159Z,0.11
2018-12-18T20:18:09.207Z,0.22
2018-12-18T20:20:39.250Z,0.25
2018-12-18T20:23:08.320Z,0.25
2018-12-18T20:25:37.346Z,0.39
2018-12-18T20:28:06.423Z,0.36
2018-12-18T20:30:35.449Z,0.50
2018-12-18T20:33:04.499Z,0.51
2018-12-18T20:35:33.560Z,0.46
2018-12-18T20:38:02.621Z,0.38
2018-12-18T20:40:32.666Z,0.28
2018-12-18T20:43:07.001Z,0.30
2018-12-18T20:45:36.039Z,0.37
2018-12-18T20:48:05.108Z,0.61
2018-12-18T20:50:34.217Z,0.47
2018-12-18T20:53:03.323Z,0.48
2018-12-18T20:55:32.412Z,0.30
2018-12-18T20:58:01.491Z,0.19
2018-12-18T21:00:30.554Z,0.02
2018-12-18T21:02:59.607Z,0.00
2018-12-18T21:05:30.680Z,0.03
2018-12-18T21:08:00.616Z,-0.20
2018-12-18T21:10:29.685Z,-0.32
2018-12-18T21:13:05.257Z,-0.34
2018-12-18T21:15:35.314Z,-0.38
2018-12-18T21:18:04.487Z,-0.50
2018-12-18T21:20:33.537Z,-0.55
2018-12-18T21:23:03.544Z,-0.58
2018-12-18T21:25:39.328Z,-0.65
2018-12-18T21:28:10.289Z,-0.41
2018-12-18T21:30:39.362Z,-0.41
2018-12-18T21:33:08.423Z,-0.33
2018-12-18T21:35:37.495Z,-0.33
2018-12-18T21:38:07.197Z,-0.29
2018-12-18T21:40:36.270Z,-0.23
2018-12-18T21:43:08.529Z,-0.18
2018-12-18T21:45:38.561Z,-0.15
2018-12-18T21:48:12.235Z,-0.12
2018-12-18T21:50:41.442Z,-0.20
2018-12-18T21:53:10.492Z,-0.32
2018-12-18T21:55:39.567Z,-0.46
2018-12-18T21:58:08.629Z,-0.54
2018-12-18T22:00:37.703Z,-0.59
2018-12-18T22:03:06.794Z,-0.73
2018-12-18T22:05:35.876Z,-0.81
2018-12-18T22:08:05.115Z,-0.85
2018-12-18T22:10:34.161Z,-0.93
2018-12-18T22:13:03.222Z,-0.92
2018-12-18T22:15:33.284Z,-0.94
2018-12-18T22:18:02.351Z,-0.92
2018-12-18T22:20:31.497Z,-1.03
2018-12-18T22:23:00.540Z,-0.95
2018-12-18T22:25:29.670Z,-1.08
2018-12-18T22:27:58.813Z,-1.04
2018-12-18T22:30:27.915Z,-1.11
2018-12-18T22:32:57.074Z,-1.08
2018-12-18T22:35:26.181Z,-1.19
2018-12-18T22:37:55.311Z,-1.17
2018-12-18T22:40:24.579Z,-1.16
2018-12-18T22:42:53.670Z,-1.20
2018-12-18T22:45:22.743Z,-1.21
2018-12-18T22:47:52.002Z,-1.30
2018-12-18T22:50:21.216Z,-1.37
2018-12-18T22:52:50.317Z,-1.38
2018-12-18T22:55:19.391Z,-1.38
2018-12-18T22:57:48.576Z,-1.46
2018-12-18T23:00:24.120Z,-1.52
2018-12-18T23:02:53.232Z,-1.59
2018-12-18T23:05:23.239Z,-1.55
2018-12-18T23:07:52.365Z,-1.62
2018-12-18T23:10:21.442Z,-1.68
2018-12-18T23:12:50.531Z,-1.70
2018-12-18T23:15:19.599Z,-1.77
2018-12-18T23:17:48.734Z,-1.79
2018-12-18T23:20:17.834Z,-1.77
2018-12-18T23:22:48.426Z,-1.84
2018-12-18T23:25:17.515Z,-1.90
2018-12-18T23:27:47.373Z,-1.94
2018-12-18T23:30:16.419Z,-2.09
2018-12-18T23:32:47.097Z,-2.07
2018-12-18T23:35:17.149Z,-2.01
2018-12-18T23:37:46.361Z,-1.98
2018-12-18T23:40:15.487Z,-1.98
2018-12-18T23:42:44.732Z,-2.00
2018-12-18T23:45:14.696Z,-2.04
2018-12-18T23:47:43.772Z,-2.05
2018-12-18T23:50:13.355Z,-2.12
2018-12-18T23:52:42.417Z,-2.15
2018-12-18T23:55:11.488Z,-2.12
2018-12-18T23:57:40.560Z,-2.07
